Time;durP1;ratioP1;P1;durP2;ratioP2;P2;SDS_P1;SDS_P2;PMS_P1;PMS_P2;Temp;Humidity;BMP_temperature;BMP_pressure;BME280_temperature;BME280_humidity;BME280_pressure;Samples;Min_cycle;Max_cycle;Signal;HPM_P1;HPM_P2
2022/07/05 00:01:22;;;;;;;7.18;1.60;;;15.10;97.80;;;;;;4209880;28;20114;-89
2022/07/05 00:03:24;;;;;;;5.10;1.67;;;15.10;97.90;;;;;;4180446;28;20049;-88
2022/07/05 00:05:26;;;;;;;4.35;1.40;;;15.10;98.00;;;;;;4196512;28;20052;-89
2022/07/05 00:07:26;;;;;;;3.55;1.77;;;15.00;98.10;;;;;;4179509;28;20103;-88
2022/07/05 00:09:27;;;;;;;2.63;1.23;;;15.00;98.10;;;;;;4196631;28;20515;-88
2022/07/05 00:11:28;;;;;;;2.78;1.48;;;15.00;98.20;;;;;;4180052;28;20416;-89
2022/07/05 00:13:29;;;;;;;3.30;1.50;;;15.00;98.20;;;;;;4196421;28;20436;-89
2022/07/05 00:15:30;;;;;;;5.88;1.23;;;15.00;98.30;;;;;;4196306;28;20052;-89
2022/07/05 00:17:30;;;;;;;5.10;1.50;;;14.90;98.30;;;;;;4197337;28;20477;-89
2022/07/05 00:19:31;;;;;;;2.67;1.52;;;14.90;98.50;;;;;;4180026;28;20045;-89
2022/07/05 00:21:32;;;;;;;4.80;1.65;;;14.90;98.50;;;;;;4196618;28;20041;-88
2022/07/05 00:23:33;;;;;;;6.30;1.50;;;14.90;98.60;;;;;;4180166;28;20118;-89
2022/07/05 00:25:34;;;;;;;2.80;1.42;;;14.90;98.70;;;;;;4196691;28;20135;-89
2022/07/05 00:27:36;;;;;;;2.92;1.40;;;14.90;98.70;;;;;;4180617;28;20037;-89
2022/07/05 00:29:36;;;;;;;5.20;1.70;;;14.90;98.70;;;;;;4197129;28;20091;-89
2022/07/05 00:31:38;;;;;;;8.25;2.08;;;14.90;98.70;;;;;;4197023;28;20460;-88
2022/07/05 00:33:39;;;;;;;7.72;2.20;;;14.80;98.70;;;;;;4181015;28;20044;-89
2022/07/05 00:35:40;;;;;;;4.65;1.33;;;14.80;98.80;;;;;;4197492;28;20142;-89
2022/07/05 00:37:42;;;;;;;3.55;1.10;;;14.80;98.80;;;;;;4180952;28;20041;-90
2022/07/05 00:39:42;;;;;;;2.13;1.23;;;14.70;98.80;;;;;;4197933;28;20055;-89
2022/07/05 00:41:43;;;;;;;4.85;1.77;;;14.70;98.90;;;;;;4197321;28;20119;-89
2022/07/05 00:43:58;;;;;;;3.75;1.20;;;14.70;98.90;;;;;;4196092;28;20044;-89
2022/07/05 00:45:59;;;;;;;3.60;1.63;;;14.70;99.10;;;;;;4179470;28;20057;-90
2022/07/05 00:47:59;;;;;;;3.60;1.25;;;14.70;99.00;;;;;;4197178;28;20045;-90
2022/07/05 00:50:01;;;;;;;2.97;1.50;;;14.70;99.00;;;;;;4179485;28;20128;-90
2022/07/05 00:52:04;;;;;;;2.28;1.23;;;14.70;99.00;;;;;;4184842;28;20079;-90
2022/07/05 00:54:06;;;;;;;2.88;1.50;;;14.70;99.00;;;;;;4194796;28;20083;-91
2022/07/05 00:56:07;;;;;;;3.70;1.48;;;14.70;99.00;;;;;;4195903;28;20594;-90
2022/07/05 00:58:08;;;;;;;2.20;1.40;;;14.70;99.00;;;;;;4195762;28;20044;-90
2022/07/05 01:00:09;;;;;;;4.25;1.88;;;14.70;99.00;;;;;;4196219;28;20040;-90
2022/07/05 01:02:10;;;;;;;2.22;1.50;;;14.70;99.10;;;;;;4184102;28;20044;-90
2022/07/05 01:04:12;;;;;;;2.20;1.38;;;14.70;99.00;;;;;;4187921;28;20119;-90
2022/07/05 01:06:13;;;;;;;4.20;1.90;;;14.70;99.10;;;;;;4182131;28;20509;-89
2022/07/05 01:08:15;;;;;;;5.65;2.20;;;14.60;99.10;;;;;;4198372;28;20052;-90
2022/07/05 01:10:17;;;;;;;4.78;1.33;;;14.60;99.20;;;;;;4182191;28;20041;-90
2022/07/05 01:12:18;;;;;;;2.92;1.40;;;14.60;99.20;;;;;;4182240;28;20044;-90
2022/07/05 01:14:20;;;;;;;2.78;1.60;;;14.60;99.30;;;;;;4198125;28;20447;-90
2022/07/05 01:16:21;;;;;;;3.17;1.58;;;14.50;99.40;;;;;;4198585;28;20049;-90
2022/07/05 01:18:22;;;;;;;3.75;1.75;;;14.50;99.40;;;;;;4183255;28;20037;-90
2022/07/05 01:20:23;;;;;;;7.70;2.13;;;14.50;99.50;;;;;;4199419;28;20049;-90
2022/07/05 01:22:26;;;;;;;3.00;1.67;;;14.40;99.50;;;;;;4200598;28;20059;-89
2022/07/05 01:24:27;;;;;;;3.03;1.60;;;14.40;99.50;;;;;;4202046;28;20508;-90
2022/07/05 01:26:28;;;;;;;2.83;1.90;;;14.40;99.80;;;;;;4200610;28;20135;-89
2022/07/05 01:28:29;;;;;;;3.42;1.48;;;14.40;99.60;;;;;;4200110;28;20078;-90
2022/07/05 01:30:33;;;;;;;4.18;1.83;;;14.30;99.60;;;;;;4199446;28;20512;-89
2022/07/05 01:32:34;;;;;;;6.40;2.08;;;14.30;99.60;;;;;;4183175;28;20676;-90
2022/07/05 01:34:38;;;;;;;4.97;2.30;;;14.30;99.70;;;;;;4182704;28;20044;-89
2022/07/05 01:36:39;;;;;;;4.47;1.52;;;14.30;99.70;;;;;;4198792;28;20078;-87
2022/07/05 01:38:41;;;;;;;4.65;1.70;;;14.30;99.80;;;;;;4198759;28;20126;-88
2022/07/05 01:40:41;;;;;;;4.10;1.70;;;14.30;99.80;;;;;;4198741;28;20435;-90
2022/07/05 01:42:44;;;;;;;2.85;1.52;;;14.30;99.90;;;;;;4182163;28;20041;-90
2022/07/05 01:44:46;;;;;;;4.45;1.85;;;14.20;99.90;;;;;;4198174;28;20048;-88
2022/07/05 01:46:50;;;;;;;2.78;1.55;;;14.20;99.90;;;;;;4198071;28;20053;-90
2022/07/05 01:48:55;;;;;;;4.57;1.40;;;14.20;99.90;;;;;;4181774;28;20040;-89
2022/07/05 01:51:21;;;;;;;2.67;2.00;;;14.10;99.90;;;;;;4198604;28;20201;-89
2022/07/05 01:53:25;;;;;;;3.58;1.88;;;14.10;99.90;;;;;;4182066;28;20048;-90
2022/07/05 01:55:25;;;;;;;4.05;2.00;;;14.10;99.90;;;;;;4199207;28;20500;-90
2022/07/05 01:57:26;;;;;;;3.75;2.03;;;14.00;99.90;;;;;;4211584;28;20055;-91
2022/07/05 01:59:33;;;;;;;4.40;1.83;;;14.00;99.90;;;;;;4218157;28;20045;-90
2022/07/05 02:01:37;;;;;;;4.65;1.92;;;13.90;99.90;;;;;;4179013;28;20595;-89
2022/07/05 02:03:38;;;;;;;5.43;2.20;;;13.90;99.90;;;;;;4218761;28;20091;-89
2022/07/05 02:05:41;;;;;;;4.95;2.10;;;13.90;99.90;;;;;;4199629;28;20182;-89
2022/07/05 02:07:49;;;;;;;4.05;2.50;;;13.80;99.90;;;;;;4214500;28;20043;-89
2022/07/05 02:09:50;;;;;;;2.85;2.00;;;13.90;99.90;;;;;;4198629;28;20150;-89
2022/07/05 02:11:51;;;;;;;6.25;2.30;;;13.80;99.90;;;;;;4164513;28;20057;-89
2022/07/05 02:13:52;;;;;;;8.23;2.78;;;13.50;99.90;;;;;;4197180;28;20051;-89
2022/07/05 02:15:53;;;;;;;6.57;2.40;;;13.70;99.90;;;;;;4164876;28;20045;-89
2022/07/05 02:17:54;;;;;;;5.05;2.72;;;13.70;99.90;;;;;;4197595;28;20488;-89
2022/07/05 02:19:54;;;;;;;4.40;2.30;;;13.60;99.90;;;;;;4165197;28;20045;-89
2022/07/05 02:21:55;;;;;;;4.72;2.00;;;13.70;99.90;;;;;;4164970;28;20107;-90
2022/07/05 02:23:56;;;;;;;6.32;2.38;;;13.60;99.90;;;;;;4188992;28;20083;-89
2022/07/05 02:25:57;;;;;;;3.55;2.15;;;13.60;99.90;;;;;;4187113;28;20045;-90
2022/07/05 02:27:58;;;;;;;4.50;2.28;;;13.60;99.90;;;;;;4198454;28;20051;-89
2022/07/05 02:30:00;;;;;;;5.47;2.10;;;13.60;99.90;;;;;;4181077;28;20516;-90
2022/07/05 02:32:00;;;;;;;4.53;2.13;;;13.60;99.90;;;;;;4230367;28;20048;-90
2022/07/05 02:34:01;;;;;;;5.25;2.35;;;13.60;99.90;;;;;;4164273;28;20536;-90
2022/07/05 02:36:11;;;;;;;5.78;3.33;;;13.60;99.90;;;;;;4213927;28;20182;-89
2022/07/05 02:38:12;;;;;;;3.65;2.50;;;13.50;99.90;;;;;;4180742;28;20219;-89
2022/07/05 02:40:14;;;;;;;9.30;2.75;;;13.50;99.90;;;;;;4181036;28;20048;-88
2022/07/05 02:42:14;;;;;;;5.95;3.17;;;13.50;99.90;;;;;;4197726;28;20041;-88
2022/07/05 02:44:15;;;;;;;8.27;2.45;;;13.50;99.90;;;;;;4180007;28;20045;-89
2022/07/05 02:46:16;;;;;;;5.35;2.25;;;13.40;99.90;;;;;;4213590;28;20523;-89
2022/07/05 02:48:17;;;;;;;4.55;2.45;;;13.40;99.90;;;;;;4174753;28;20111;-90
2022/07/05 02:50:17;;;;;;;3.03;2.45;;;13.40;99.90;;;;;;4199305;28;20036;-87
2022/07/05 02:52:18;;;;;;;6.38;2.83;;;13.40;99.90;;;;;;4197628;28;20059;-92
2022/07/05 02:54:19;;;;;;;6.78;3.83;;;13.40;99.90;;;;;;4181461;28;20048;-87
2022/07/05 02:56:20;;;;;;;5.97;3.30;;;13.30;99.90;;;;;;4198932;28;20025;-90
2022/07/05 02:58:20;;;;;;;8.05;2.53;;;13.40;99.90;;;;;;4199489;28;20041;-89
2022/07/05 03:00:21;;;;;;;4.78;2.58;;;13.30;99.90;;;;;;4182595;28;20056;-87
2022/07/05 03:02:24;;;;;;;5.35;2.50;;;13.30;99.90;;;;;;4198849;28;20043;-90
2022/07/05 03:04:26;;;;;;;4.63;2.80;;;13.30;99.90;;;;;;4182245;28;20118;-90
2022/07/05 03:06:26;;;;;;;5.22;2.80;;;13.30;99.90;;;;;;4197330;28;20052;-92
2022/07/05 03:08:27;;;;;;;4.60;2.70;;;13.30;99.90;;;;;;4174933;28;20151;-91
2022/07/05 03:10:29;;;;;;;4.55;3.25;;;13.30;99.90;;;;;;4203484;28;20040;-90
2022/07/05 03:12:29;;;;;;;7.88;3.92;;;13.30;99.90;;;;;;4197348;28;20411;-90
2022/07/05 03:14:31;;;;;;;8.13;2.60;;;13.30;99.90;;;;;;4175349;28;20104;-91
2022/07/05 03:16:33;;;;;;;8.70;3.40;;;13.30;99.90;;;;;;4164081;28;20131;-91
2022/07/05 03:18:34;;;;;;;5.25;2.60;;;13.20;99.90;;;;;;4197164;28;20045;-91
2022/07/05 03:20:34;;;;;;;6.35;2.40;;;13.20;99.90;;;;;;4180508;28;20172;-91
2022/07/05 03:22:35;;;;;;;7.03;2.70;;;13.30;99.90;;;;;;4180139;28;20083;-91
2022/07/05 03:24:37;;;;;;;8.05;2.63;;;13.00;99.90;;;;;;4162860;28;20422;-91
2022/07/05 03:26:38;;;;;;;5.05;2.90;;;13.20;99.90;;;;;;4168769;28;20045;-91
2022/07/05 03:28:39;;;;;;;5.63;3.08;;;13.20;99.90;;;;;;4179749;28;20535;-91
2022/07/05 03:30:40;;;;;;;4.78;2.45;;;13.30;99.90;;;;;;4202187;28;20037;-91
2022/07/05 03:32:41;;;;;;;4.78;2.53;;;13.20;99.90;;;;;;4180385;28;20053;-91
2022/07/05 03:34:42;;;;;;;5.13;2.72;;;13.20;99.90;;;;;;4197370;28;20113;-91
2022/07/05 03:36:42;;;;;;;5.72;2.97;;;13.20;99.90;;;;;;4196961;28;20051;-91
2022/07/05 03:38:44;;;;;;;5.47;3.15;;;13.20;99.90;;;;;;4163761;28;20049;-91
2022/07/05 03:40:46;;;;;;;8.35;3.40;;;13.20;99.90;;;;;;4164117;28;20120;-91
2022/07/05 03:42:46;;;;;;;7.60;3.60;;;13.20;99.90;;;;;;4197028;28;20044;-91
2022/07/05 03:44:48;;;;;;;3.92;2.67;;;13.10;99.90;;;;;;4190280;28;20072;-91
2022/07/05 03:46:50;;;;;;;5.93;2.83;;;13.20;99.90;;;;;;4168026;28;20053;-91
2022/07/05 03:48:53;;;;;;;5.20;3.05;;;13.10;99.90;;;;;;4163879;28;20060;-91
2022/07/05 03:50:53;;;;;;;5.05;2.97;;;13.10;99.90;;;;;;4179632;28;20444;-91
2022/07/05 03:52:54;;;;;;;6.25;2.88;;;13.10;99.90;;;;;;4212640;28;20135;-91
2022/07/05 03:54:55;;;;;;;8.25;2.85;;;13.20;99.90;;;;;;4196409;28;20500;-91
2022/07/05 03:56:58;;;;;;;6.63;2.78;;;13.20;99.90;;;;;;4170596;28;20076;-91
2022/07/05 03:59:00;;;;;;;7.55;3.13;;;13.20;99.90;;;;;;4196855;28;20046;-89
2022/07/05 04:01:04;;;;;;;4.07;2.55;;;13.20;99.90;;;;;;4183214;28;20547;-93
2022/07/05 04:03:05;;;;;;;4.68;3.13;;;13.20;99.90;;;;;;4198438;28;20040;-94
2022/07/05 04:05:06;;;;;;;5.07;3.10;;;13.20;99.90;;;;;;4177435;28;20520;-94
2022/07/05 04:07:07;;;;;;;3.40;2.58;;;13.20;99.90;;;;;;4181918;28;20040;-93
2022/07/05 04:09:08;;;;;;;7.28;2.78;;;13.20;99.90;;;;;;4181673;28;20509;-94
2022/07/05 04:11:12;;;;;;;5.18;3.05;;;13.20;99.90;;;;;;4214921;28;20126;-93
2022/07/05 04:13:14;;;;;;;4.65;3.17;;;13.20;99.90;;;;;;4181830;28;20520;-93
2022/07/05 04:15:16;;;;;;;6.75;2.80;;;13.20;99.90;;;;;;4181572;28;20064;-94
2022/07/05 04:17:17;;;;;;;4.78;2.70;;;13.30;99.90;;;;;;4181713;28;20045;-94
2022/07/05 04:19:19;;;;;;;5.95;3.30;;;13.30;99.90;;;;;;4180697;28;20091;-94
2022/07/05 04:21:20;;;;;;;6.15;2.70;;;13.30;99.90;;;;;;4181354;28;20053;-94
2022/07/05 04:23:24;;;;;;;4.75;2.47;;;13.30;99.90;;;;;;4181668;28;20184;-94
2022/07/05 04:25:26;;;;;;;4.93;2.75;;;13.30;99.90;;;;;;4181429;28;20086;-94
2022/07/05 04:27:27;;;;;;;4.72;2.88;;;13.40;99.90;;;;;;4181143;28;20056;-94
2022/07/05 04:29:30;;;;;;;8.05;2.83;;;13.40;99.90;;;;;;4181753;28;20037;-94
2022/07/05 04:31:32;;;;;;;8.63;2.88;;;13.40;99.90;;;;;;4181647;28;20109;-94
2022/07/05 04:33:32;;;;;;;5.93;3.15;;;13.40;99.90;;;;;;4182327;28;20076;-94
2022/07/05 04:35:35;;;;;;;5.88;2.45;;;13.50;99.90;;;;;;4216429;28;20058;-94
2022/07/05 04:37:48;;;;;;;3.42;2.42;;;13.50;99.90;;;;;;4186791;28;20523;-93
2022/07/05 04:39:49;;;;;;;3.28;2.40;;;13.50;99.90;;;;;;4176745;28;20052;-95
2022/07/05 04:41:51;;;;;;;3.50;1.95;;;13.50;99.90;;;;;;4185297;28;20029;-94
2022/07/05 04:43:51;;;;;;;5.93;2.80;;;13.50;99.90;;;;;;4215169;28;20138;-95
2022/07/05 04:45:52;;;;;;;5.10;2.50;;;13.40;99.90;;;;;;4171520;28;20072;-94
2022/07/05 04:47:54;;;;;;;4.60;2.60;;;13.60;99.90;;;;;;4168205;28;20052;-95
2022/07/05 04:50:02;;;;;;;7.55;2.85;;;13.60;99.90;;;;;;4201112;28;20040;-94
2022/07/05 04:52:03;;;;;;;4.75;2.17;;;13.60;99.90;;;;;;4201100;28;20044;-95
2022/07/05 04:54:04;;;;;;;6.90;3.67;;;13.70;99.90;;;;;;4168681;28;20049;-95
2022/07/05 04:56:06;;;;;;;5.45;2.40;;;13.80;99.90;;;;;;4168340;28;20563;-95
2022/07/05 04:58:06;;;;;;;4.97;2.40;;;13.90;99.90;;;;;;4168235;28;20070;-95
2022/07/05 05:00:09;;;;;;;3.42;2.42;;;14.00;99.90;;;;;;4201328;28;20048;-95
2022/07/05 05:02:10;;;;;;;4.72;2.30;;;14.10;99.90;;;;;;4168645;28;20049;-95
2022/07/05 05:04:12;;;;;;;3.90;1.92;;;14.20;99.90;;;;;;4173452;28;20041;-95
2022/07/05 05:06:14;;;;;;;3.30;2.15;;;14.20;99.90;;;;;;4211144;28;20048;-90
2022/07/05 05:08:17;;;;;;;5.35;2.10;;;14.30;99.90;;;;;;4182870;28;20508;-91
2022/07/05 05:10:17;;;;;;;4.85;1.80;;;14.40;99.90;;;;;;4166629;28;20506;-91
2022/07/05 05:12:19;;;;;;;4.05;1.92;;;14.40;99.90;;;;;;4199857;28;20088;-91
2022/07/05 05:14:20;;;;;;;5.28;1.98;;;14.50;99.90;;;;;;4185427;28;20512;-91
2022/07/05 05:16:21;;;;;;;2.42;1.70;;;14.60;99.90;;;;;;4166299;28;20049;-91
2022/07/05 05:18:26;;;;;;;3.50;2.10;;;14.70;99.90;;;;;;4200224;28;20441;-92
2022/07/05 05:20:27;;;;;;;4.28;2.28;;;14.80;99.90;;;;;;4170698;28;20068;-92
2022/07/05 05:22:28;;;;;;;4.68;1.60;;;14.80;99.90;;;;;;4219103;28;20044;-92
2022/07/05 05:24:28;;;;;;;3.63;2.08;;;14.90;99.90;;;;;;4168240;28;20505;-92
2022/07/05 05:26:29;;;;;;;4.32;2.05;;;15.00;99.90;;;;;;4200080;28;20480;-91
2022/07/05 05:28:31;;;;;;;5.15;1.70;;;15.00;99.90;;;;;;4166537;28;20409;-91
2022/07/05 05:30:32;;;;;;;3.47;1.40;;;15.10;99.90;;;;;;4167250;28;20045;-92
2022/07/05 05:32:33;;;;;;;4.00;1.45;;;15.20;99.90;;;;;;4166907;28;20099;-92
2022/07/05 05:34:34;;;;;;;6.00;1.60;;;15.20;99.90;;;;;;4201366;28;20052;-91
2022/07/05 05:36:36;;;;;;;3.80;1.70;;;15.30;99.90;;;;;;4168215;28;20073;-91
2022/07/05 05:38:37;;;;;;;2.38;1.35;;;15.30;99.90;;;;;;4200637;28;20044;-91
2022/07/05 05:40:42;;;;;;;4.78;1.92;;;15.30;99.90;;;;;;4185555;28;20084;-91
2022/07/05 05:42:43;;;;;;;11.32;2.25;;;15.40;99.90;;;;;;4205404;28;20048;-93
2022/07/05 05:44:44;;;;;;;2.88;1.42;;;15.50;99.90;;;;;;4207039;28;20052;-93
2022/07/05 05:46:44;;;;;;;3.58;1.67;;;15.60;99.90;;;;;;4172976;28;20521;-89
2022/07/05 05:48:45;;;;;;;2.58;1.50;;;15.60;99.90;;;;;;4187014;28;20041;-88
2022/07/05 05:50:46;;;;;;;2.22;1.40;;;15.70;99.90;;;;;;4200437;28;20825;-88
2022/07/05 05:52:48;;;;;;;9.02;1.70;;;15.70;99.90;;;;;;4198931;28;20037;-88
2022/07/05 05:54:48;;;;;;;3.63;1.60;;;15.80;99.90;;;;;;4199534;28;20129;-87
2022/07/05 05:56:49;;;;;;;3.65;1.50;;;15.80;99.90;;;;;;4197778;28;20045;-88
2022/07/05 05:58:50;;;;;;;3.58;1.50;;;15.90;99.90;;;;;;4198367;28;20496;-88
2022/07/05 06:00:52;;;;;;;4.40;1.52;;;15.90;99.90;;;;;;4198311;28;20044;-88
2022/07/05 06:02:53;;;;;;;5.82;1.70;;;16.00;99.90;;;;;;4198898;28;20138;-88
2022/07/05 06:04:54;;;;;;;5.07;1.50;;;16.00;99.90;;;;;;4198454;28;20041;-87
2022/07/05 06:06:56;;;;;;;6.90;1.60;;;16.10;99.90;;;;;;4200057;28;20040;-88
2022/07/05 06:08:57;;;;;;;1.67;1.10;;;16.10;99.90;;;;;;4182143;28;20048;-88
2022/07/05 06:10:58;;;;;;;2.38;1.00;;;16.20;99.90;;;;;;4181441;28;20078;-88
2022/07/05 06:13:02;;;;;;;2.75;0.93;;;16.30;99.90;;;;;;4197851;28;20060;-88
2022/07/05 06:15:03;;;;;;;5.00;1.50;;;16.40;99.90;;;;;;4181294;28;20165;-89
2022/07/05 06:17:04;;;;;;;5.03;1.58;;;16.40;99.90;;;;;;4197857;28;20593;-88
2022/07/05 06:19:05;;;;;;;3.75;1.45;;;16.50;99.90;;;;;;4198219;28;20568;-89
2022/07/05 06:21:06;;;;;;;3.33;1.00;;;16.50;99.90;;;;;;4181293;28;20084;-88
2022/07/05 06:23:07;;;;;;;2.25;1.13;;;16.60;99.90;;;;;;4198996;28;20400;-88
2022/07/05 06:25:08;;;;;;;2.90;1.15;;;16.60;99.90;;;;;;4187753;28;20477;-89
2022/07/05 06:27:10;;;;;;;3.53;0.90;;;16.70;99.90;;;;;;4181891;28;20386;-88
2022/07/05 06:29:11;;;;;;;3.17;1.23;;;16.70;99.90;;;;;;4198099;28;20459;-88
2022/07/05 06:31:12;;;;;;;3.42;0.98;;;16.80;99.90;;;;;;4181194;28;20052;-88
2022/07/05 06:33:14;;;;;;;4.10;0.80;;;16.80;99.90;;;;;;4197804;28;20061;-88
2022/07/05 06:35:15;;;;;;;5.05;1.00;;;16.80;99.70;;;;;;4199034;28;20101;-89
2022/07/05 06:37:16;;;;;;;3.45;1.00;;;16.90;99.80;;;;;;4197696;28;20119;-88
2022/07/05 06:39:18;;;;;;;2.92;1.17;;;17.00;99.90;;;;;;4197594;28;20041;-88
2022/07/05 06:41:18;;;;;;;4.80;0.93;;;17.00;99.80;;;;;;4197845;28;20036;-89
2022/07/05 06:43:19;;;;;;;3.67;0.80;;;17.10;99.80;;;;;;4199318;28;20071;-89
2022/07/05 06:45:21;;;;;;;4.90;0.93;;;17.20;99.60;;;;;;4198756;28;20189;-89
2022/07/05 06:47:22;;;;;;;1.40;0.77;;;17.20;99.30;;;;;;4181452;28;20540;-89
2022/07/05 06:49:23;;;;;;;6.38;1.55;;;17.20;99.20;;;;;;4233589;28;20098;-88
2022/07/05 06:51:24;;;;;;;4.35;1.33;;;17.20;99.30;;;;;;4182754;28;20079;-89
2022/07/05 06:53:25;;;;;;;5.78;0.77;;;17.30;99.30;;;;;;4197199;28;20074;-90
2022/07/05 06:55:28;;;;;;;5.03;1.00;;;17.40;99.30;;;;;;4197318;28;20036;-90
2022/07/05 06:57:29;;;;;;;6.53;1.00;;;17.40;99.20;;;;;;4183088;28;20053;-90
2022/07/05 06:59:30;;;;;;;5.82;0.90;;;;;;;;;;4180695;28;20049;-89
2022/07/05 07:01:31;;;;;;;4.25;0.77;;;;;;;;;;4199574;28;20044;-89
2022/07/05 07:03:32;;;;;;;5.43;1.42;;;;;;;;;;4199980;28;20052;-89
2022/07/05 07:05:35;;;;;;;5.53;0.90;;;;;;;;;;4199314;28;20157;-90
2022/07/05 07:10:01;;;;;;;7.90;0.98;;;;;;;;;;4199301;28;20565;-90
2022/07/05 07:12:02;;;;;;;1.70;0.50;;;;;;;;;;4199691;28;20049;-91
2022/07/05 07:14:04;;;;;;;3.40;0.50;;;;;;;;;;4181493;28;20055;-90
2022/07/05 07:16:05;;;;;;;2.13;0.50;;;;;;;;;;4198803;28;20052;-90
2022/07/05 07:18:10;;;;;;;7.28;0.70;;;;;;;;;;4193456;28;20048;-93
2022/07/05 07:20:12;;;;;;;3.30;0.85;;;;;;;;;;4176995;28;20045;-89
2022/07/05 07:22:14;;;;;;;1.85;0.63;;;;;;;;;;4185263;28;20084;-91
2022/07/05 07:24:15;;;;;;;3.00;0.47;;;;;;;;;;4196815;28;20089;-90
2022/07/05 07:26:17;;;;;;;1.63;0.60;;;;;;;;;;4191163;28;20041;-90
2022/07/05 07:28:18;;;;;;;2.28;0.60;;;;;;;;;;4204910;28;20045;-89
2022/07/05 07:30:21;;;;;;;2.72;1.27;;;;;;;;;;4198703;28;20052;-90
2022/07/05 07:32:22;;;;;;;2.90;0.50;;;;;;;;;;4186798;28;20048;-89
2022/07/05 07:34:24;;;;;;;3.38;0.43;;;;;;;;;;4194444;28;20078;-90
2022/07/05 07:36:27;;;;;;;2.53;0.50;;;;;;;;;;4196974;28;20048;-89
2022/07/05 07:38:28;;;;;;;2.95;0.40;;;;;;;;;;4176976;28;20049;-89
2022/07/05 07:40:29;;;;;;;2.45;0.50;;;;;;;;;;4197624;28;20094;-89
2022/07/05 07:42:30;;;;;;;3.45;0.57;;;;;;;;;;4202657;28;20111;-89
2022/07/05 07:44:31;;;;;;;2.30;0.32;;;;;;;;;;4221526;28;20067;-89
2022/07/05 07:46:33;;;;;;;1.80;0.40;;;;;;;;;;4206902;28;20060;-89
2022/07/05 07:48:34;;;;;;;3.58;0.30;;;;;;;;;;4202101;28;20051;-88
2022/07/05 07:50:35;;;;;;;1.70;0.50;;;;;;;;;;4205534;28;20063;-91
2022/07/05 07:52:38;;;;;;;3.13;0.82;;;;;;;;;;4217826;28;20051;-91
2022/07/05 07:54:40;;;;;;;2.95;0.60;;;;;;;;;;4185523;28;20099;-90
2022/07/05 07:56:48;;;;;;;1.75;0.40;;;;;;;;;;4200537;28;20048;-86
2022/07/05 07:58:59;;;;;;;2.42;0.68;;;;;;;;;;4197444;28;20040;-86
2022/07/05 08:01:28;;;;;;;3.80;0.57;;;;;;;;;;4205556;28;20083;-86
2022/07/05 08:03:39;;;;;;;2.92;0.47;;;;;;;;;;4196953;28;20473;-86
2022/07/05 08:06:02;;;;;;;5.15;0.57;;;;;;;;;;4206574;28;20040;-86
2022/07/05 08:08:03;;;;;;;6.00;0.52;;;;;;;;;;4190535;28;20041;-86
2022/07/05 08:10:08;;;;;;;2.40;0.60;;;;;;;;;;4206253;28;20090;-86
2022/07/05 08:12:09;;;;;;;5.80;0.60;;;;;;;;;;4201806;28;20056;-86
2022/07/05 08:14:11;;;;;;;5.30;1.33;;;;;;;;;;4195820;28;20040;-86
2022/07/05 08:16:14;;;;;;;5.82;0.65;;;;;;;;;;4189284;28;20045;-86
2022/07/05 08:23:29;;;;;;;2.75;0.35;;;;;;;;;;4191967;28;20147;-88
2022/07/05 08:25:30;;;;;;;1.80;0.47;;;;;;;;;;4197778;28;20088;-87
2022/07/05 08:27:31;;;;;;;1.42;0.52;;;;;;;;;;4194719;28;20053;-87
2022/07/05 08:29:34;;;;;;;4.60;0.55;;;;;;;;;;4209830;28;20055;-88
2022/07/05 08:31:36;;;;;;;1.60;0.40;;;;;;;;;;4213934;28;20059;-88
2022/07/05 08:33:37;;;;;;;9.07;0.85;;;;;;;;;;4180140;28;20040;-86
2022/07/05 08:35:38;;;;;;;3.15;0.82;;;;;;;;;;4191972;28;20473;-86
2022/07/05 08:37:40;;;;;;;5.47;0.77;;;;;;;;;;4184459;28;20037;-88
2022/07/05 08:39:41;;;;;;;3.05;0.50;;;;;;;;;;4183184;28;20127;-87
2022/07/05 08:41:42;;;;;;;1.63;0.65;;;;;;;;;;4185812;28;20131;-87
2022/07/05 08:43:45;;;;;;;0.95;0.40;;;;;;;;;;4184304;28;20049;-87
2022/07/05 08:45:46;;;;;;;4.10;0.50;;;;;;;;;;4193811;28;20053;-86
2022/07/05 08:47:48;;;;;;;7.03;0.70;;;;;;;;;;4183458;28;20064;-86
2022/07/05 08:49:50;;;;;;;6.90;0.68;;;;;;;;;;4195367;28;20048;-86
2022/07/05 08:51:53;;;;;;;2.35;0.50;;;;;;;;;;4178133;28;20124;-86
2022/07/05 08:53:55;;;;;;;6.32;1.67;;;;;;;;;;4194405;28;20090;-86
2022/07/05 08:55:56;;;;;;;3.03;0.50;;;;;;;;;;4181774;28;20123;-85
2022/07/05 08:57:57;;;;;;;5.25;0.43;;;;;;;;;;4191909;28;20040;-85
2022/07/05 08:59:58;;;;;;;2.50;0.50;;;;;;;;;;4198659;28;20044;-87
2022/07/05 09:02:03;;;;;;;2.90;0.47;;;;;;;;;;4184369;28;20045;-85
2022/07/05 09:04:05;;;;;;;4.32;1.00;;;;;;;;;;4183748;28;20041;-86
2022/07/05 09:06:17;;;;;;;4.78;1.17;;;;;;;;;;4177321;28;20045;-87
2022/07/05 09:08:18;;;;;;;3.60;0.70;;;;;;;;;;4183264;28;20033;-86
2022/07/05 09:10:20;;;;;;;4.13;0.88;;;;;;;;;;4182433;28;20049;-86
2022/07/05 09:12:21;;;;;;;5.43;0.55;;;;;;;;;;4193317;28;20037;-86
2022/07/05 09:14:24;;;;;;;0.80;0.30;;;;;;;;;;4191911;28;20056;-86
2022/07/05 09:16:25;;;;;;;4.30;0.45;;;;;;;;;;4191934;28;20575;-86
2022/07/05 09:18:41;;;;;;;1.88;0.30;;;;;;;;;;4193966;28;20063;-86
2022/07/05 09:20:44;;;;;;;5.95;0.60;;;;;;;;;;4183434;28;20047;-86
2022/07/05 09:22:49;;;;;;;8.57;0.65;;;;;;;;;;4194291;28;20406;-86
2022/07/05 09:24:50;;;;;;;1.13;0.40;;;;;;;;;;4196050;28;20107;-86
2022/07/05 09:27:01;;;;;;;3.65;1.05;;;;;;;;;;4195696;28;20041;-87
2022/07/05 09:29:07;;;;;;;4.35;0.60;;;;;;;;;;4191614;28;20049;-87
2022/07/05 09:31:25;;;;;;;3.55;0.90;;;;;;;;;;4191932;28;20040;-87
2022/07/05 09:33:26;;;;;;;4.47;0.40;;;;;;;;;;4194347;28;20536;-86
2022/07/05 09:35:28;;;;;;;2.33;0.50;;;;;;;;;;4195590;28;20499;-87
2022/07/05 09:37:51;;;;;;;7.82;0.95;;;;;;;;;;4192240;28;20056;-87
2022/07/05 09:39:53;;;;;;;4.72;0.50;;;;;;;;;;4184105;28;20071;-86
2022/07/05 09:42:09;;;;;;;2.13;0.52;;;;;;;;;;4187245;28;20123;-86
2022/07/05 09:44:10;;;;;;;3.15;0.68;;;;;;;;;;4185313;28;20049;-87
2022/07/05 09:46:13;;;;;;;4.43;0.70;;;;;;;;;;4184277;28;20107;-87
2022/07/05 09:48:14;;;;;;;3.47;0.50;;;;;;;;;;4195890;28;20511;-87
2022/07/05 09:50:15;;;;;;;5.30;0.50;;;;;;;;;;4196771;28;20044;-87
2022/07/05 09:52:28;;;;;;;3.90;0.70;;;;;;;;;;4196125;28;20040;-86
2022/07/05 09:54:32;;;;;;;2.05;0.60;;;;;;;;;;4195108;28;20044;-87
2022/07/05 09:56:46;;;;;;;1.80;0.50;;;;;;;;;;4194751;28;20048;-87
2022/07/05 09:58:47;;;;;;;4.97;1.08;;;;;;;;;;4185474;28;20041;-86
2022/07/05 10:00:48;;;;;;;4.05;0.80;;;;;;;;;;4196725;28;20041;-86
2022/07/05 10:02:51;;;;;;;1.20;0.43;;;;;;;;;;4187363;28;20475;-86
2022/07/05 10:05:07;;;;;;;3.50;0.47;;;;;;;;;;4186934;28;20082;-87
2022/07/05 10:07:08;;;;;;;2.80;0.50;;;;;;;;;;4217678;28;20047;-86
2022/07/05 10:09:10;;;;;;;1.60;0.50;;;;;;;;;;4194625;28;20112;-85
2022/07/05 10:11:11;;;;;;;2.35;0.60;;;;;;;;;;4196532;28;20045;-85
2022/07/05 10:13:14;;;;;;;3.50;0.65;;;;;;;;;;4196329;28;20037;-87
2022/07/05 10:15:20;;;;;;;5.93;0.70;;;;;;;;;;4198300;28;20096;-87
2022/07/05 10:17:21;;;;;;;2.30;0.55;;;;;;;;;;4199735;28;20072;-87
2022/07/05 10:19:22;;;;;;;2.00;0.70;;;;;;;;;;4199835;28;20036;-88
2022/07/05 10:21:25;;;;;;;2.63;0.45;;;;;;;;;;4183350;28;20044;-87
2022/07/05 10:23:27;;;;;;;2.55;0.57;;;;;;;;;;4193979;28;20128;-88
2022/07/05 10:25:28;;;;;;;4.45;0.70;;;;;;;;;;4197574;28;20532;-87
2022/07/05 10:27:30;;;;;;;1.45;0.47;;;;;;;;;;4196119;28;20077;-88
2022/07/05 10:29:33;;;;;;;2.15;0.77;;;;;;;;;;4196960;28;20531;-87
2022/07/05 10:31:36;;;;;;;3.00;0.40;;;;;;;;;;4184961;28;20041;-87
2022/07/05 10:33:37;;;;;;;2.78;0.50;;;;;;;;;;4193622;28;20047;-88
2022/07/05 10:35:39;;;;;;;6.32;0.60;;;;;;;;;;4183764;28;20048;-87
2022/07/05 10:37:40;;;;;;;5.97;0.90;;;;;;;;;;4196988;28;20052;-89
2022/07/05 10:39:41;;;;;;;2.78;0.50;;;;;;;;;;4219222;28;20118;-87
2022/07/05 10:41:43;;;;;;;3.53;0.70;;;;;;;;;;4182986;28;20462;-87
2022/07/05 10:43:44;;;;;;;3.95;0.60;;;;;;;;;;4196540;28;20048;-87
2022/07/05 10:45:49;;;;;;;3.65;0.50;;;17.50;99.20;;;;;;4186238;28;20136;-88
2022/07/05 10:48:18;;;;;;;2.25;0.50;;;22.00;80.30;;;;;;4188339;28;20479;-87
2022/07/05 10:50:22;;;;;;;2.90;0.60;;;22.00;75.00;;;;;;4198233;28;20106;-87
2022/07/05 10:52:24;;;;;;;0.60;0.50;;;22.00;76.60;;;;;;4192104;28;20065;-88
2022/07/05 10:54:26;;;;;;;1.80;0.47;;;22.00;76.30;;;;;;4185673;28;20044;-85
2022/07/05 10:56:26;;;;;;;4.78;0.73;;;22.10;76.20;;;;;;4187945;28;20088;-86
2022/07/05 10:58:30;;;;;;;2.67;0.60;;;22.20;75.90;;;;;;4194193;28;20044;-86
2022/07/05 11:00:31;;;;;;;2.15;0.70;;;22.20;75.40;;;;;;4192605;28;20072;-86
2022/07/05 11:02:32;;;;;;;4.35;0.82;;;22.00;74.80;;;;;;4191049;28;20463;-85
2022/07/05 11:04:35;;;;;;;3.00;0.60;;;21.90;74.60;;;;;;4188138;28;20040;-85
2022/07/05 11:06:44;;;;;;;3.20;0.60;;;21.80;75.00;;;;;;4191967;28;20481;-86
2022/07/05 11:09:00;;;;;;;5.75;0.77;;;21.90;75.30;;;;;;4190155;28;20400;-86
2022/07/05 11:11:13;;;;;;;2.47;0.80;;;22.20;75.60;;;;;;4194339;28;20428;-86
2022/07/05 11:13:36;;;;;;;3.10;1.13;;;22.50;72.10;;;;;;4184565;28;20048;-86